Date,TemperatureHighF,TemperatureAvgF,TemperatureLowF,DewpointHighF,DewpointAvgF,DewpointLowF,HumidityHigh,HumidityAvg,HumidityLow,PressureMaxIn,PressureMinIn,WindSpeedMaxMPH,WindSpeedAvgMPH,GustSpeedMaxMPH,PrecipitationSumIn
2013-6-1,71.8,59.3,43.5,30.3,22.6,4.1,56,27,12,30.14,29.99,12,2,12,0.00
2013-6-2,86.2,65.7,43.7,31.9,19.8,8.5,59,23,6,30.14,29.78,11,2,11,0.00
2013-6-3,89.8,73.8,50.2,30.9,15.9,8.5,47,16,5,29.93,29.72,17,3,21,0.00
2013-6-4,76.1,63.6,50.7,43.7,34.8,6.4,75,38,10,30.16,29.90,12,2,14,0.12
2013-6-5,57.7,52.3,46.9,45.0,40.3,36.4,83,65,47,30.14,30.05,10,1,10,0.00
2013-6-6,81.0,63.4,42.8,46.0,29.7,9.9,86,39,8,30.08,29.96,14,2,14,0.00
2013-6-7,81.5,67.6,51.6,39.3,27.3,14.9,58,26,9,30.08,29.81,15,2,19,0.00
2013-6-8,78.6,68.2,58.5,39.1,29.3,18.5,37,25,13,30.02,29.78,12,2,12,0.00
2013-6-9,92.3,71.5,48.0,42.2,22.9,6.1,70,26,4,30.02,29.87,9,2,9,0.00
2013-6-10,99.3,81.9,61.3,31.2,12.9,3.5,32,9,3,29.96,29.84,15,2,17,0.00
2013-6-11,98.4,81.7,58.6,32.2,15.5,3.5,36,12,3,29.99,29.78,22,4,22,0.00
2013-6-12,92.8,78.3,56.8,29.4,13.0,6.1,28,10,4,30.14,29.93,17,3,17,0.00
2013-6-13,85.3,72.9,58.8,50.8,40.9,15.4,71,36,10,30.14,29.93,13,2,13,0.00
2013-6-14,89.8,77.4,65.3,36.9,21.7,8.6,34,14,5,30.02,29.87,19,4,19,0.00
2013-6-15,80.6,69.6,57.2,41.3,36.9,32.9,50,32,20,30.11,29.96,9,2,9,0.00
2013-6-16,83.7,68.5,57.0,42.9,32.0,9.6,55,30,7,30.14,29.99,30,2,30,0.00
2013-6-17,81.9,67.7,51.1,39.8,29.9,14.9,59,29,9,30.14,30.02,11,2,11,0.00
2013-6-18,85.6,69.8,55.2,49.5,37.0,16.6,73,35,8,30.14,29.87,25,3,25,0.00
2013-6-19,95.7,76.3,54.1,46.5,26.8,6.1,67,25,4,29.99,29.66,20,3,20,0.00
2013-6-20,94.5,74.2,52.9,39.4,19.4,6.1,42,17,4,29.96,29.81,12,1,12,0.00
2013-6-21,97.5,77.3,57.9,36.6,21.2,3.5,38,17,3,29.96,29.78,17,1,17,0.00
2013-6-22,88.2,72.0,57.0,43.6,33.6,16.6,57,27,9,29.99,29.78,15,1,15,0.00
2013-6-23,87.1,68.4,54.5,50.9,36.6,10.7,68,37,6,30.05,29.84,9,2,13,0.00
2013-6-24,92.3,71.0,58.6,37.8,26.1,6.1,44,25,4,29.99,29.75,6,1,6,0.00
2013-6-25,94.5,76.5,56.7,30.3,17.6,6.1,31,14,4,30.05,29.87,12,1,12,0.00
2013-6-26,97.5,80.0,57.0,35.6,19.1,3.5,43,15,3,30.11,30.02,11,2,11,0.00
2013-6-27,97.5,81.9,61.3,37.2,19.5,3.5,35,14,3,30.22,30.11,11,2,11,0.00
2013-6-28,94.8,80.2,63.7,52.5,33.5,16.5,58,21,6,30.28,30.14,16,2,16,0.00
2013-6-29,84.6,72.7,61.0,52.7,42.6,28.4,69,36,13,30.25,30.11,8,2,15,0.00
2013-6-30,77.0,68.6,61.2,54.2,46.4,42.4,65,46,31,30.19,30.14,12,2,12,0.00